createdAt,value
2022-10-30T00:02:24.077Z,99.10
2022-10-30T00:04:50.678Z,99.40
2022-10-30T00:07:17.344Z,99.90
2022-10-30T00:09:43.924Z,99.90
2022-10-30T00:12:10.563Z,99.90
2022-10-30T00:14:37.259Z,99.90
2022-10-30T00:17:03.991Z,99.90
2022-10-30T00:19:30.609Z,99.90
2022-10-30T00:24:28.570Z,99.90
2022-10-30T00:26:55.524Z,99.50
2022-10-30T00:29:26.261Z,99.10
2022-10-30T00:31:53.589Z,98.50
2022-10-30T00:34:20.531Z,98.10
2022-10-30T00:36:47.152Z,98.00
2022-10-30T00:39:13.816Z,97.50
2022-10-30T00:41:41.579Z,97.20
2022-10-30T00:44:35.616Z,97.10
2022-10-30T00:47:05.809Z,96.70
2022-10-30T00:49:36.620Z,96.50
2022-10-30T00:52:06.844Z,96.20
2022-10-30T00:54:34.187Z,96.00
2022-10-30T00:57:02.088Z,95.80
2022-10-30T00:59:32.102Z,95.80
2022-10-30T01:02:01.062Z,95.60
2022-10-30T01:04:30.237Z,95.50
2022-10-30T01:06:58.274Z,95.30
2022-10-30T01:09:24.933Z,95.40
2022-10-30T01:11:51.533Z,95.50
2022-10-30T01:14:21.422Z,95.40
2022-10-30T01:17:03.390Z,95.50
2022-10-30T01:19:51.257Z,95.60
2022-10-30T01:23:21.406Z,95.70
2022-10-30T01:26:23.490Z,96.10
2022-10-30T01:28:59.001Z,96.20
2022-10-30T01:31:44.995Z,96.00
2022-10-30T01:34:44.374Z,95.70
2022-10-30T01:37:20.490Z,94.80
2022-10-30T01:39:47.249Z,93.30
2022-10-30T01:42:38.845Z,91.60
2022-10-30T01:45:05.993Z,89.80
2022-10-30T01:47:45.841Z,87.90
2022-10-30T01:50:56.548Z,87.10
2022-10-30T01:53:45.531Z,86.50
2022-10-30T01:56:27.025Z,86.40
2022-10-30T01:59:07.249Z,86.60
2022-10-30T02:01:35.622Z,86.80
2022-10-30T02:06:30.589Z,87.10
2022-10-30T02:08:57.487Z,86.90
2022-10-30T02:11:27.569Z,86.60
2022-10-30T02:13:55.922Z,86.70
2022-10-30T02:16:23.663Z,86.70
2022-10-30T02:18:50.247Z,87.00
2022-10-30T02:21:16.822Z,85.80
2022-10-30T02:23:43.593Z,85.50
2022-10-30T02:26:10.148Z,85.30
2022-10-30T02:28:37.180Z,85.30
2022-10-30T02:31:03.855Z,84.90
2022-10-30T02:33:30.443Z,84.90
2022-10-30T02:35:57.007Z,84.90
2022-10-30T02:38:24.058Z,84.70
2022-10-30T02:40:50.654Z,84.80
2022-10-30T02:43:17.254Z,84.60
2022-10-30T02:45:43.807Z,84.60
2022-10-30T02:50:41.878Z,85.40
2022-10-30T02:53:08.477Z,85.70
2022-10-30T02:55:35.086Z,86.00
2022-10-30T02:58:01.645Z,86.30
2022-10-30T03:00:28.267Z,86.60
2022-10-30T03:02:56.306Z,86.80
2022-10-30T03:05:23.087Z,87.30
2022-10-30T03:07:51.308Z,87.10
2022-10-30T03:10:18.581Z,87.30
2022-10-30T03:12:45.173Z,87.30
2022-10-30T03:15:11.804Z,87.70
2022-10-30T03:17:38.459Z,87.80
2022-10-30T03:20:05.590Z,87.80
2022-10-30T03:22:32.226Z,87.60
2022-10-30T03:25:01.055Z,87.70
2022-10-30T03:27:27.613Z,88.10
2022-10-30T03:29:54.176Z,87.70
2022-10-30T03:32:20.912Z,87.60
2022-10-30T03:34:47.564Z,88.10
2022-10-30T03:37:14.140Z,88.40
2022-10-30T03:39:40.718Z,88.70
2022-10-30T03:42:08.440Z,89.40
2022-10-30T03:44:35.029Z,89.50
2022-10-30T03:47:01.754Z,89.90
2022-10-30T03:49:28.427Z,90.30
2022-10-30T03:51:55.042Z,90.90
2022-10-30T03:54:21.604Z,91.40
2022-10-30T03:56:48.183Z,91.90
2022-10-30T03:59:14.778Z,92.30
2022-10-30T04:01:41.527Z,92.40
2022-10-30T04:04:08.235Z,93.70
2022-10-30T04:06:34.845Z,94.10
2022-10-30T04:09:01.452Z,95.20
2022-10-30T04:11:28.071Z,97.20
2022-10-30T04:13:54.694Z,97.40
2022-10-30T04:16:21.282Z,96.80
2022-10-30T04:18:47.871Z,96.80
2022-10-30T04:21:14.449Z,96.70
2022-10-30T04:23:41.096Z,97.00
2022-10-30T04:26:07.891Z,97.50
2022-10-30T04:28:34.485Z,97.70
2022-10-30T04:31:01.105Z,97.40
2022-10-30T04:33:28.649Z,97.50
2022-10-30T04:35:55.221Z,97.30
2022-10-30T04:38:22.301Z,98.10
2022-10-30T04:40:49.241Z,98.10
2022-10-30T04:43:16.072Z,97.80
2022-10-30T04:45:42.893Z,98.30
2022-10-30T04:48:15.187Z,98.50
2022-10-30T04:50:41.839Z,98.70
2022-10-30T04:53:13.587Z,98.60
2022-10-30T04:55:40.261Z,98.70
2022-10-30T04:58:08.074Z,98.90
2022-10-30T05:00:35.003Z,98.90
2022-10-30T05:03:02.021Z,98.80
2022-10-30T05:05:29.942Z,98.50
2022-10-30T05:07:57.349Z,98.70
2022-10-30T05:10:24.273Z,98.70
2022-10-30T05:12:53.659Z,98.50
2022-10-30T05:15:20.977Z,98.30
2022-10-30T05:17:52.456Z,98.60
2022-10-30T05:20:19.315Z,98.60
2022-10-30T05:22:46.356Z,98.90
2022-10-30T05:25:13.186Z,98.80
2022-10-30T05:27:39.755Z,98.50
2022-10-30T05:30:06.947Z,98.80
2022-10-30T05:32:33.525Z,98.80
2022-10-30T05:35:01.589Z,98.60
2022-10-30T05:37:28.398Z,98.50
2022-10-30T05:39:55.017Z,98.30
2022-10-30T05:42:21.807Z,98.20
2022-10-30T05:45:00.257Z,98.00
2022-10-30T05:47:27.340Z,97.70
2022-10-30T05:49:53.969Z,97.90
2022-10-30T05:52:20.576Z,97.80
2022-10-30T05:54:47.145Z,97.90
2022-10-30T05:57:13.738Z,98.00
2022-10-30T05:59:40.387Z,98.10
2022-10-30T06:02:07.111Z,98.20
2022-10-30T06:04:33.779Z,98.40
2022-10-30T06:07:00.357Z,98.70
2022-10-30T06:09:27.111Z,98.80
2022-10-30T06:11:53.940Z,98.80
2022-10-30T06:14:20.524Z,99.00
2022-10-30T06:16:47.455Z,99.20
2022-10-30T06:19:17.559Z,99.40
2022-10-30T06:21:46.079Z,99.50
2022-10-30T06:24:13.265Z,99.90
2022-10-30T06:26:40.292Z,99.80
2022-10-30T06:29:06.879Z,99.70
2022-10-30T06:31:33.452Z,99.90
2022-10-30T06:34:00.177Z,99.90
2022-10-30T06:36:26.806Z,99.90
2022-10-30T06:38:53.476Z,99.90
2022-10-30T06:41:20.050Z,99.90
2022-10-30T06:43:46.708Z,99.90
2022-10-30T06:46:13.299Z,99.90
2022-10-30T06:48:39.990Z,99.90
2022-10-30T06:51:06.745Z,99.90
2022-10-30T06:53:33.516Z,99.90
2022-10-30T06:56:01.906Z,99.90
2022-10-30T06:58:29.294Z,99.90
2022-10-30T07:00:56.421Z,99.90
2022-10-30T07:03:23.014Z,99.90
2022-10-30T07:05:49.586Z,99.90
2022-10-30T07:08:16.229Z,99.90
2022-10-30T07:10:42.797Z,99.90
2022-10-30T07:13:09.601Z,99.90
2022-10-30T07:15:36.413Z,99.90
2022-10-30T07:18:04.365Z,99.90
2022-10-30T07:20:33.392Z,99.90
2022-10-30T07:23:00.636Z,99.90
2022-10-30T07:25:27.793Z,99.90
2022-10-30T07:27:55.738Z,99.90
2022-10-30T07:33:01.372Z,99.90
2022-10-30T07:35:29.112Z,99.90
2022-10-30T07:37:55.785Z,99.90
2022-10-30T07:40:22.896Z,99.90
2022-10-30T07:42:49.549Z,99.90
2022-10-30T07:45:16.184Z,99.90
2022-10-30T07:47:43.912Z,99.90
2022-10-30T07:50:11.477Z,99.90
2022-10-30T07:52:38.141Z,99.90
2022-10-30T07:55:05.253Z,99.60
2022-10-30T07:57:39.052Z,98.70
2022-10-30T08:00:08.279Z,98.50
2022-10-30T08:02:34.973Z,96.40
2022-10-30T08:05:02.001Z,95.70
2022-10-30T08:07:32.722Z,95.20
2022-10-30T08:09:59.529Z,94.80
2022-10-30T08:12:26.901Z,94.30
2022-10-30T08:14:54.455Z,92.70
2022-10-30T08:17:21.981Z,92.80
2022-10-30T08:19:49.203Z,92.70
2022-10-30T08:22:15.807Z,91.70
2022-10-30T08:24:42.397Z,91.70
2022-10-30T08:27:10.221Z,91.30
2022-10-30T08:29:36.823Z,91.20
2022-10-30T08:32:03.501Z,90.10
2022-10-30T08:34:32.276Z,89.00
2022-10-30T08:37:00.037Z,89.30
2022-10-30T08:39:26.636Z,89.10
2022-10-30T08:41:53.271Z,89.70
2022-10-30T08:44:19.857Z,89.60
2022-10-30T08:46:46.433Z,89.80
2022-10-30T08:49:12.977Z,86.90
2022-10-30T08:51:39.598Z,86.30
2022-10-30T08:54:06.157Z,85.30
2022-10-30T08:56:32.791Z,83.80
2022-10-30T08:58:59.458Z,84.10
2022-10-30T09:01:26.157Z,83.10
2022-10-30T09:03:52.795Z,83.20
2022-10-30T09:06:19.375Z,81.90
2022-10-30T09:08:46.743Z,81.20
2022-10-30T09:11:13.313Z,81.30
2022-10-30T09:13:39.886Z,80.40
2022-10-30T09:16:06.736Z,80.50
2022-10-30T09:18:33.314Z,79.50
2022-10-30T09:21:03.120Z,77.20
2022-10-30T09:23:31.821Z,76.80
2022-10-30T09:25:58.459Z,74.90
2022-10-30T09:28:25.197Z,72.60
2022-10-30T09:30:56.184Z,72.20
2022-10-30T09:33:23.450Z,72.50
2022-10-30T09:35:50.259Z,71.50
2022-10-30T09:38:16.922Z,72.50
2022-10-30T09:40:46.587Z,73.90
2022-10-30T09:43:15.886Z,74.10
2022-10-30T09:45:55.409Z,74.70
2022-10-30T09:51:49.173Z,74.20
2022-10-30T09:54:53.588Z,74.20
2022-10-30T09:57:29.365Z,74.90
2022-10-30T10:00:14.897Z,74.20
2022-10-30T10:03:10.618Z,73.80
2022-10-30T10:05:49.020Z,73.30
2022-10-30T10:08:35.859Z,74.20
2022-10-30T10:11:09.774Z,73.10
2022-10-30T10:13:44.476Z,72.20
2022-10-30T10:16:23.035Z,71.60
2022-10-30T10:19:04.090Z,70.30
2022-10-30T10:21:35.022Z,70.00
2022-10-30T10:24:04.343Z,69.50
2022-10-30T10:27:08.635Z,68.70
2022-10-30T10:29:49.628Z,67.80
2022-10-30T10:32:50.937Z,66.20
2022-10-30T10:35:35.737Z,65.90
2022-10-30T10:38:07.526Z,66.20
2022-10-30T10:40:44.317Z,65.90
2022-10-30T10:43:35.745Z,62.50
2022-10-30T10:46:20.326Z,62.90
2022-10-30T10:49:02.059Z,62.10
2022-10-30T10:51:42.163Z,60.60
2022-10-30T10:54:18.199Z,59.70
2022-10-30T10:56:48.200Z,58.80
2022-10-30T10:59:27.142Z,58.20
2022-10-30T11:02:20.942Z,58.00
2022-10-30T11:04:52.219Z,55.60
2022-10-30T11:07:30.265Z,56.60
2022-10-30T11:09:57.962Z,57.80
2022-10-30T11:12:33.743Z,58.30
2022-10-30T11:15:17.980Z,58.40
2022-10-30T11:17:54.308Z,57.90
2022-10-30T11:20:48.722Z,57.80
2022-10-30T11:23:42.854Z,56.80
2022-10-30T11:26:18.317Z,53.60
2022-10-30T11:28:53.806Z,54.40
2022-10-30T11:31:23.360Z,52.10
2022-10-30T11:33:50.810Z,49.00
2022-10-30T11:36:22.809Z,49.20
2022-10-30T11:38:49.689Z,49.80
2022-10-30T11:41:17.614Z,48.90
2022-10-30T11:43:44.841Z,48.30
2022-10-30T11:46:20.897Z,48.70
2022-10-30T11:48:54.461Z,47.10
2022-10-30T11:51:33.732Z,48.80
2022-10-30T11:54:01.892Z,47.40
2022-10-30T11:56:30.423Z,46.80
2022-10-30T11:58:59.876Z,47.20
2022-10-30T12:01:36.845Z,45.40
2022-10-30T12:04:32.994Z,45.60
2022-10-30T12:07:23.144Z,45.00
2022-10-30T12:09:50.040Z,45.70
2022-10-30T12:12:24.376Z,44.90
2022-10-30T12:14:52.361Z,45.20
2022-10-30T12:17:20.312Z,44.60
2022-10-30T12:19:57.381Z,44.60
2022-10-30T12:22:32.126Z,41.00
2022-10-30T12:25:02.518Z,42.60
2022-10-30T12:27:31.877Z,40.50
2022-10-30T12:30:19.224Z,40.40
2022-10-30T12:32:57.387Z,41.60
2022-10-30T12:35:52.853Z,41.70
2022-10-30T12:38:40.099Z,42.90
2022-10-30T12:41:26.546Z,42.50
2022-10-30T12:44:02.522Z,42.00
2022-10-30T12:46:48.711Z,42.20
2022-10-30T12:49:43.333Z,42.40
2022-10-30T12:52:26.171Z,42.50
2022-10-30T12:55:17.811Z,41.90
2022-10-30T12:57:56.696Z,42.60
2022-10-30T13:00:23.355Z,42.90
2022-10-30T13:03:27.483Z,42.80
2022-10-30T13:05:57.294Z,44.10
2022-10-30T13:08:36.866Z,43.70
2022-10-30T13:11:11.665Z,43.90
2022-10-30T13:13:42.156Z,44.10
2022-10-30T13:16:32.655Z,45.00
2022-10-30T13:19:02.981Z,46.20
2022-10-30T13:21:51.126Z,47.10
2022-10-30T13:24:39.286Z,46.70
2022-10-30T13:27:14.554Z,48.00
2022-10-30T13:29:50.419Z,49.10
2022-10-30T13:32:28.596Z,49.50
2022-10-30T13:35:04.242Z,50.80
2022-10-30T13:37:46.394Z,51.00
2022-10-30T13:40:37.455Z,50.60
2022-10-30T13:43:31.418Z,51.20
2022-10-30T13:46:13.507Z,52.00
2022-10-30T13:49:01.925Z,52.30
2022-10-30T13:51:52.744Z,52.70
2022-10-30T13:54:22.109Z,52.50
2022-10-30T13:56:50.328Z,51.50
2022-10-30T13:59:20.023Z,51.70
2022-10-30T14:01:54.470Z,51.30
2022-10-30T14:04:37.420Z,50.50
2022-10-30T14:07:44.981Z,50.70
2022-10-30T14:10:19.420Z,49.90
2022-10-30T14:12:55.018Z,50.50
2022-10-30T14:15:31.067Z,49.70
2022-10-30T14:18:12.605Z,49.50
2022-10-30T14:20:53.255Z,50.10
2022-10-30T14:23:19.800Z,50.90
2022-10-30T14:26:04.633Z,51.20
2022-10-30T14:28:36.661Z,52.40
2022-10-30T14:31:16.538Z,52.50
2022-10-30T14:33:52.369Z,52.00
2022-10-30T14:36:33.316Z,52.20
2022-10-30T14:39:21.411Z,52.80
2022-10-30T14:42:12.369Z,52.60
2022-10-30T14:45:00.882Z,53.70
2022-10-30T14:47:46.049Z,53.60
2022-10-30T14:50:22.863Z,53.60
2022-10-30T14:52:49.557Z,54.70
2022-10-30T14:55:30.858Z,55.40
2022-10-30T14:58:03.665Z,55.60
2022-10-30T15:00:33.272Z,53.70
2022-10-30T15:03:27.461Z,53.40
2022-10-30T15:06:02.252Z,55.40
2022-10-30T15:09:03.225Z,56.00
2022-10-30T15:11:53.994Z,56.70
2022-10-30T15:14:54.127Z,57.50
2022-10-30T15:17:26.925Z,58.90
2022-10-30T15:19:53.853Z,59.40
2022-10-30T15:22:23.427Z,59.10
2022-10-30T15:24:51.614Z,59.60
2022-10-30T15:27:21.701Z,54.90
2022-10-30T15:29:53.525Z,53.30
2022-10-30T15:32:22.066Z,54.90
2022-10-30T15:34:56.339Z,53.40
2022-10-30T15:37:23.531Z,54.20
2022-10-30T15:39:50.144Z,53.80
2022-10-30T15:42:17.219Z,53.70
2022-10-30T15:44:45.936Z,53.40
2022-10-30T15:47:16.287Z,54.90
2022-10-30T15:49:50.294Z,55.40
2022-10-30T15:52:26.194Z,54.00
2022-10-30T15:55:00.324Z,54.70
2022-10-30T15:58:02.809Z,55.40
2022-10-30T16:00:35.316Z,55.90
2022-10-30T16:03:17.911Z,55.60
2022-10-30T16:05:44.710Z,56.20
2022-10-30T16:08:16.164Z,56.70
2022-10-30T16:10:44.985Z,57.30
2022-10-30T16:13:20.763Z,57.70
2022-10-30T16:15:47.984Z,58.50
2022-10-30T16:18:21.148Z,59.20
2022-10-30T16:21:06.807Z,60.10
2022-10-30T16:23:40.168Z,60.80
2022-10-30T16:26:06.889Z,61.50
2022-10-30T16:28:37.449Z,61.80
2022-10-30T16:31:07.097Z,61.70
2022-10-30T16:33:35.982Z,61.50
2022-10-30T16:36:04.711Z,61.30
2022-10-30T16:38:38.997Z,61.30
2022-10-30T16:41:13.308Z,61.70
2022-10-30T16:44:06.266Z,61.40
2022-10-30T16:46:38.465Z,61.00
2022-10-30T16:49:12.090Z,60.50
2022-10-30T16:51:39.854Z,60.20
2022-10-30T16:54:08.015Z,60.10
2022-10-30T16:56:34.650Z,60.20
2022-10-30T16:59:20.083Z,60.40
2022-10-30T17:01:54.152Z,60.40
2022-10-30T17:04:21.074Z,60.50
2022-10-30T17:06:47.709Z,60.50
2022-10-30T17:09:24.494Z,60.30
2022-10-30T17:12:20.437Z,60.60
2022-10-30T17:14:51.632Z,60.70
2022-10-30T17:17:24.668Z,61.00
2022-10-30T17:20:00.337Z,61.20
2022-10-30T17:22:28.029Z,61.20
2022-10-30T17:24:54.974Z,61.40
2022-10-30T17:27:48.860Z,61.70
2022-10-30T17:30:36.031Z,61.80
2022-10-30T17:33:22.296Z,62.30
2022-10-30T17:35:49.473Z,62.40
2022-10-30T17:38:16.216Z,62.80
2022-10-30T17:40:42.910Z,62.00
2022-10-30T17:43:15.177Z,62.10
2022-10-30T17:45:43.285Z,61.90
2022-10-30T17:48:18.603Z,61.80
2022-10-30T17:50:45.228Z,61.80
2022-10-30T17:53:23.210Z,62.00
2022-10-30T17:56:07.023Z,62.00
2022-10-30T17:58:33.659Z,61.90
2022-10-30T18:01:00.743Z,62.00
2022-10-30T18:03:27.521Z,61.90
2022-10-30T18:05:54.656Z,61.70
2022-10-30T18:08:21.493Z,61.70
2022-10-30T18:10:48.139Z,61.70
2022-10-30T18:13:15.493Z,61.80
2022-10-30T18:15:45.230Z,62.70
2022-10-30T18:18:12.295Z,61.60
2022-10-30T18:20:38.890Z,61.70
2022-10-30T18:26:24.388Z,61.50
2022-10-30T18:28:51.705Z,61.70
2022-10-30T18:31:20.781Z,61.90
2022-10-30T18:33:47.947Z,62.00
2022-10-30T18:36:18.602Z,62.40
2022-10-30T18:38:45.540Z,62.60
2022-10-30T18:41:15.982Z,62.30
2022-10-30T18:43:45.737Z,62.30
2022-10-30T18:46:16.259Z,62.00
2022-10-30T18:48:44.030Z,62.00
2022-10-30T18:51:21.981Z,61.80
2022-10-30T18:53:52.238Z,62.20
2022-10-30T18:56:27.905Z,62.30
2022-10-30T18:59:00.701Z,62.40
2022-10-30T19:01:32.021Z,62.60
2022-10-30T19:04:01.074Z,62.70
2022-10-30T19:06:28.212Z,63.10
2022-10-30T19:08:54.839Z,63.50
2022-10-30T19:11:24.963Z,64.00
2022-10-30T19:13:52.549Z,64.50
2022-10-30T19:16:20.334Z,65.10
2022-10-30T19:18:48.635Z,65.80
2022-10-30T19:21:20.848Z,66.40
2022-10-30T19:23:47.981Z,67.00
2022-10-30T19:26:16.190Z,67.40
2022-10-30T19:28:44.469Z,67.80
2022-10-30T19:31:16.304Z,68.20
2022-10-30T19:33:43.633Z,68.30
2022-10-30T19:36:34.182Z,68.30
2022-10-30T19:39:08.351Z,68.60
2022-10-30T19:41:36.533Z,68.70
2022-10-30T19:44:03.238Z,69.00
2022-10-30T19:46:29.827Z,69.20
2022-10-30T19:48:58.285Z,69.40
2022-10-30T19:51:26.860Z,69.30
2022-10-30T19:53:53.730Z,69.30
2022-10-30T19:56:21.444Z,69.40
2022-10-30T19:58:48.139Z,69.60
2022-10-30T20:01:14.966Z,70.30
2022-10-30T20:03:41.758Z,70.50
2022-10-30T20:06:14.192Z,70.80
2022-10-30T20:08:40.883Z,71.80
2022-10-30T20:11:08.051Z,72.10
2022-10-30T20:13:34.946Z,73.30
2022-10-30T20:16:04.502Z,74.30
2022-10-30T20:18:34.028Z,75.30
2022-10-30T20:21:09.920Z,75.60
2022-10-30T20:23:39.577Z,76.00
2022-10-30T20:26:18.679Z,76.40
2022-10-30T20:28:45.482Z,77.20
2022-10-30T20:31:12.756Z,78.40
2022-10-30T20:33:39.541Z,80.10
2022-10-30T20:36:06.317Z,82.00
2022-10-30T20:38:34.362Z,82.70
2022-10-30T20:41:03.776Z,83.00
2022-10-30T20:43:36.017Z,83.50
2022-10-30T20:46:03.301Z,83.80
2022-10-30T20:48:30.147Z,83.40
2022-10-30T20:50:58.144Z,83.70
2022-10-30T20:53:25.869Z,84.20
2022-10-30T20:55:52.673Z,84.60
2022-10-30T20:58:19.451Z,84.80
2022-10-30T21:00:46.493Z,85.80
2022-10-30T21:03:14.391Z,86.10
2022-10-30T21:05:44.683Z,86.60
2022-10-30T21:08:12.965Z,87.10
2022-10-30T21:10:40.359Z,87.10
2022-10-30T21:13:09.077Z,87.40
2022-10-30T21:15:42.315Z,87.80
2022-10-30T21:18:11.053Z,88.50
2022-10-30T21:20:37.943Z,89.70
2022-10-30T21:23:05.819Z,89.90
2022-10-30T21:25:32.909Z,90.00
2022-10-30T21:27:59.982Z,90.00
2022-10-30T21:30:27.017Z,89.70
2022-10-30T21:32:53.639Z,89.50
2022-10-30T21:35:20.509Z,89.10
2022-10-30T21:37:47.158Z,89.00
2022-10-30T21:40:14.203Z,88.80
2022-10-30T21:42:40.979Z,88.50
2022-10-30T21:45:08.525Z,88.30
2022-10-30T21:47:35.156Z,88.20
2022-10-30T21:50:05.982Z,88.40
2022-10-30T21:52:34.765Z,88.50
2022-10-30T21:55:01.379Z,88.70
2022-10-30T21:57:29.222Z,88.80
2022-10-30T21:59:58.711Z,89.20
2022-10-30T22:02:28.370Z,89.50
2022-10-30T22:04:55.100Z,89.80
2022-10-30T22:07:21.725Z,90.50
2022-10-30T22:09:48.362Z,90.70
2022-10-30T22:12:14.937Z,91.00
2022-10-30T22:14:41.502Z,91.10
2022-10-30T22:17:08.763Z,91.50
2022-10-30T22:19:35.344Z,91.60
2022-10-30T22:22:01.946Z,91.80
2022-10-30T22:24:28.510Z,92.00
2022-10-30T22:26:55.060Z,92.60
2022-10-30T22:29:21.631Z,92.70
2022-10-30T22:31:49.503Z,92.70
2022-10-30T22:34:16.139Z,92.80
2022-10-30T22:36:42.714Z,93.20
2022-10-30T22:39:12.472Z,93.30
2022-10-30T22:41:39.689Z,93.30
2022-10-30T22:44:08.935Z,93.70
2022-10-30T22:46:36.646Z,93.80
2022-10-30T22:49:03.556Z,93.70
2022-10-30T22:51:33.077Z,93.90
2022-10-30T22:54:02.254Z,94.60
2022-10-30T22:56:31.493Z,95.70
2022-10-30T22:59:01.365Z,95.60
2022-10-30T23:01:31.159Z,95.80
2022-10-30T23:03:59.942Z,95.80
2022-10-30T23:06:28.138Z,95.80
2022-10-30T23:08:57.206Z,95.80
2022-10-30T23:11:26.146Z,95.70
2022-10-30T23:13:53.036Z,95.90
2022-10-30T23:16:22.551Z,96.00
2022-10-30T23:18:50.309Z,95.90
2022-10-30T23:21:20.195Z,96.20
2022-10-30T23:23:47.460Z,96.20
2022-10-30T23:26:24.322Z,96.10
2022-10-30T23:28:52.923Z,96.20
2022-10-30T23:31:29.713Z,96.50
2022-10-30T23:33:58.083Z,96.40
2022-10-30T23:36:25.294Z,96.40
2022-10-30T23:38:52.906Z,96.60
2022-10-30T23:41:21.099Z,96.60
2022-10-30T23:43:47.756Z,96.50
2022-10-30T23:46:14.372Z,96.40
2022-10-30T23:48:40.993Z,96.60
2022-10-30T23:51:08.600Z,96.80
2022-10-30T23:53:35.365Z,97.00
2022-10-30T23:56:02.548Z,97.30
2022-10-30T23:58:29.137Z,97.90
